createdAt,value
2023-05-03T04:55:10.745Z,72.40
2023-05-03T05:00:16.005Z,72.20
2023-05-03T05:05:20.507Z,70.30
2023-05-03T05:10:26.298Z,69.00
2023-05-03T05:15:29.761Z,68.00
2023-05-03T05:20:33.558Z,67.70
2023-05-03T05:25:38.588Z,66.20
2023-05-03T05:30:42.601Z,66.00
2023-05-03T05:35:46.783Z,65.50
2023-05-03T05:40:51.677Z,65.20
2023-05-03T05:45:55.220Z,64.70
2023-05-03T05:50:58.649Z,64.20
2023-05-03T05:56:03.491Z,63.20
2023-05-03T06:01:07.389Z,63.40
2023-05-03T06:06:10.853Z,63.10
2023-05-03T06:11:15.817Z,62.90
2023-05-03T06:16:19.271Z,62.50
2023-05-03T06:21:22.775Z,61.40
2023-05-03T06:26:27.636Z,61.80
2023-05-03T06:31:31.488Z,61.30
2023-05-03T06:36:35.667Z,60.80
2023-05-03T06:41:40.705Z,60.60
2023-05-03T06:46:44.154Z,59.10
2023-05-03T06:51:47.676Z,58.50
2023-05-03T06:56:52.483Z,59.00
2023-05-03T07:01:55.932Z,58.60
2023-05-03T07:06:59.447Z,57.70
2023-05-03T07:12:04.737Z,56.60
2023-05-03T07:17:08.480Z,55.10
2023-05-03T07:22:13.663Z,53.40
2023-05-03T07:27:19.158Z,53.90
2023-05-03T07:32:22.878Z,53.00
2023-05-03T07:37:27.837Z,51.30
2023-05-03T07:42:32.741Z,52.40
2023-05-03T07:47:38.268Z,51.40
2023-05-03T07:52:43.414Z,51.80
2023-05-03T07:57:48.270Z,50.30
2023-05-03T08:02:52.097Z,50.50
2023-05-03T08:07:55.957Z,47.80
2023-05-03T08:13:01.055Z,47.80
2023-05-03T08:18:04.696Z,47.50
2023-05-03T08:23:08.192Z,46.60
2023-05-03T08:28:13.072Z,44.50
2023-05-03T08:33:16.754Z,45.50
2023-05-03T08:38:20.581Z,43.40
2023-05-03T08:43:28.464Z,43.70
2023-05-03T08:48:32.826Z,42.30
2023-05-03T08:53:36.516Z,43.60
2023-05-03T08:58:41.294Z,42.50
2023-05-03T09:03:50.636Z,44.90
2023-05-03T09:08:54.700Z,44.50
2023-05-03T09:14:11.474Z,43.80
2023-05-03T09:19:16.348Z,41.90
2023-05-03T09:24:22.233Z,40.90
2023-05-03T09:29:31.774Z,41.70
2023-05-03T09:34:37.157Z,41.90
2023-05-03T09:39:42.079Z,42.40
2023-05-03T09:44:51.528Z,42.80
2023-05-03T09:49:55.548Z,41.40
2023-05-03T09:54:59.212Z,42.00
2023-05-03T10:00:08.717Z,41.90
2023-05-03T10:05:13.910Z,41.30
2023-05-03T10:10:18.223Z,40.20
2023-05-03T10:15:25.189Z,39.30
2023-05-03T10:20:34.386Z,39.00
2023-05-03T10:25:39.547Z,38.00
2023-05-03T10:30:44.319Z,38.80
2023-05-03T10:35:53.349Z,38.50
2023-05-03T10:40:57.590Z,38.70
2023-05-03T10:46:03.173Z,38.70
2023-05-03T10:51:37.140Z,39.00
2023-05-03T10:56:54.618Z,39.10
2023-05-03T11:02:00.927Z,37.50
2023-05-03T11:07:04.708Z,37.30
2023-05-03T11:12:09.687Z,37.60
2023-05-03T11:17:15.032Z,36.60
2023-05-03T11:22:18.483Z,35.60
2023-05-03T11:27:25.327Z,36.20
2023-05-03T11:32:31.479Z,36.50
2023-05-03T11:37:35.481Z,36.00
2023-05-03T11:42:52.159Z,35.20
2023-05-03T11:47:59.369Z,34.90
2023-05-03T11:53:03.020Z,36.20
2023-05-03T11:58:09.926Z,35.10
2023-05-03T12:03:20.203Z,35.20
2023-05-03T12:08:30.193Z,34.40
2023-05-03T12:13:38.806Z,35.30
2023-05-03T12:18:51.457Z,34.30
2023-05-03T12:23:57.338Z,35.10
2023-05-03T12:29:02.197Z,35.60
2023-05-03T12:34:31.779Z,34.30
2023-05-03T12:39:32.972Z,32.70
2023-05-03T12:44:37.316Z,31.50
2023-05-03T12:49:46.435Z,31.30
2023-05-03T12:54:53.681Z,30.80
2023-05-03T13:00:03.401Z,31.20
2023-05-03T13:05:14.462Z,30.40
2023-05-03T13:10:27.293Z,29.80
2023-05-03T13:15:31.285Z,30.00
2023-05-03T13:20:37.482Z,30.20
2023-05-03T13:25:41.033Z,29.40
2023-05-03T13:30:44.612Z,29.70
2023-05-03T13:35:49.580Z,30.00
2023-05-03T13:40:53.314Z,30.00
2023-05-03T13:46:01.992Z,30.40
2023-05-03T13:51:10.432Z,29.50
2023-05-03T13:56:14.348Z,30.10
2023-05-03T14:01:18.886Z,29.10
2023-05-03T14:06:24.509Z,29.10
2023-05-03T14:11:28.480Z,27.10
2023-05-03T14:21:43.244Z,26.00
2023-05-03T14:26:46.815Z,24.10
2023-05-03T14:31:50.466Z,21.30
2023-05-03T14:36:56.274Z,18.00
2023-05-03T14:41:59.760Z,16.90
2023-05-03T14:47:03.638Z,15.50
2023-05-03T14:52:08.875Z,14.50
2023-05-03T14:57:12.389Z,13.60
2023-05-03T15:02:15.889Z,13.90
2023-05-03T15:07:21.266Z,12.70
2023-05-03T15:12:25.946Z,13.70
2023-05-03T15:17:30.934Z,13.20
2023-05-03T15:22:37.002Z,11.50
2023-05-03T15:27:40.923Z,13.40
2023-05-03T15:32:44.902Z,11.70
2023-05-03T15:37:49.674Z,12.10
2023-05-03T15:42:53.127Z,12.60
2023-05-03T15:47:57.159Z,12.80
2023-05-03T15:53:02.021Z,13.80
2023-05-03T15:58:07.490Z,12.80
2023-05-03T16:03:11.046Z,13.10
2023-05-03T16:08:16.269Z,12.70
2023-05-03T16:13:20.071Z,13.60
2023-05-03T16:18:24.164Z,14.50
2023-05-03T16:23:29.538Z,15.50
2023-05-03T16:28:33.309Z,16.50
2023-05-03T16:33:36.818Z,17.20
2023-05-03T16:38:41.620Z,18.10
2023-05-03T16:43:45.215Z,19.30
2023-05-03T16:48:48.721Z,19.40
2023-05-03T16:53:54.246Z,20.50
2023-05-03T16:58:59.202Z,20.70
2023-05-03T17:04:02.833Z,21.60
2023-05-03T17:09:07.579Z,22.60
2023-05-03T17:14:11.737Z,23.30
2023-05-03T17:19:15.292Z,24.30
2023-05-03T17:24:20.132Z,25.20
2023-05-03T17:29:23.637Z,25.60
2023-05-03T17:34:27.863Z,26.40
2023-05-03T17:39:32.918Z,27.10
2023-05-03T17:44:36.383Z,27.60
2023-05-03T17:49:39.841Z,27.60
2023-05-03T17:54:46.221Z,28.10
2023-05-03T17:59:49.761Z,29.00
2023-05-03T18:04:54.447Z,29.20
2023-05-03T18:09:59.725Z,29.20
2023-05-03T18:15:06.184Z,29.60
2023-05-03T18:20:10.710Z,30.40
2023-05-03T18:25:16.110Z,30.50
2023-05-03T18:30:19.653Z,31.10
2023-05-03T18:35:23.636Z,31.50
2023-05-03T18:40:30.093Z,32.40
2023-05-03T18:45:33.907Z,32.90
2023-05-03T18:50:38.399Z,33.00
2023-05-03T18:55:43.282Z,32.80
2023-05-03T19:00:47.089Z,34.30
2023-05-03T19:05:50.513Z,33.80
2023-05-03T19:10:55.412Z,34.00
2023-05-03T19:15:58.816Z,34.60
2023-05-03T19:21:02.218Z,34.20
2023-05-03T19:26:07.206Z,34.60
2023-05-03T19:31:10.861Z,37.00
2023-05-03T19:36:15.038Z,37.00
2023-05-03T19:41:20.157Z,36.40
2023-05-03T19:46:23.888Z,36.70
2023-05-03T19:51:27.882Z,36.80
2023-05-03T19:56:32.793Z,37.10
2023-05-03T20:01:36.230Z,37.50
2023-05-03T20:06:39.886Z,37.60
2023-05-03T20:11:44.687Z,37.70
2023-05-03T20:16:48.391Z,37.50
2023-05-03T20:21:53.935Z,37.50
2023-05-03T20:26:59.433Z,38.60
2023-05-03T20:32:03.076Z,37.40
2023-05-03T20:37:06.633Z,37.40
2023-05-03T20:42:11.716Z,38.00
2023-05-03T20:47:15.239Z,38.50
2023-05-03T20:52:19.227Z,39.00
2023-05-03T20:57:24.073Z,39.30
2023-05-03T21:02:27.609Z,39.30
2023-05-03T21:07:31.154Z,39.10
2023-05-03T21:12:36.181Z,39.40
2023-05-03T21:17:40.321Z,40.00
2023-05-03T21:22:44.036Z,40.20
2023-05-03T21:27:49.458Z,40.50
2023-05-03T21:32:53.428Z,41.00
2023-05-03T21:37:56.894Z,41.80
2023-05-03T21:43:04.522Z,42.30
2023-05-03T21:48:08.314Z,42.80
2023-05-03T21:53:11.851Z,43.10
2023-05-03T21:58:16.907Z,43.50
2023-05-03T22:03:20.693Z,43.70
2023-05-03T22:08:24.848Z,44.00
2023-05-03T22:13:29.870Z,44.10
2023-05-03T22:18:33.438Z,44.40
2023-05-03T22:23:36.973Z,45.00
2023-05-03T22:28:42.351Z,45.00
